Time;durP1;ratioP1;P1;durP2;ratioP2;P2;SDS_P1;SDS_P2;PMS_P1;PMS_P2;Temp;Humidity;BMP_temperature;BMP_pressure;BME280_temperature;BME280_humidity;BME280_pressure;Samples;Min_cycle;Max_cycle;Signal;HPM_P1;HPM_P2
2023/08/31 00:01:09;;;;;;;0.68;0.63;;;;;;;20.10;100.00;99988.34;4986021;28;20136;-76
2023/08/31 00:03:35;;;;;;;1.75;0.75;;;;;;;19.83;100.00;99913.28;4976070;28;20538;-74
2023/08/31 00:06:04;;;;;;;0.30;0.30;;;;;;;20.20;100.00;99978.97;4986952;28;20045;-74
2023/08/31 00:08:30;;;;;;;1.02;0.95;;;;;;;19.91;100.00;99918.22;4986978;28;20807;-75
2023/08/31 00:10:57;;;;;;;1.63;1.52;;;;;;;19.93;100.00;99965.16;4986484;28;20022;-76
2023/08/31 00:13:22;;;;;;;2.28;1.13;;;;;;;19.95;100.00;99951.78;4984734;28;20069;-78
2023/08/31 00:15:48;;;;;;;1.55;1.45;;;;;;;20.11;100.00;99968.78;4986040;28;20042;-77
2023/08/31 00:18:16;;;;;;;1.75;1.52;;;;;;;20.17;100.00;99944.50;4987374;28;20046;-76
2023/08/31 00:20:42;;;;;;;0.98;0.90;;;;;;;19.55;100.00;99863.91;4984617;28;20120;-76
2023/08/31 00:23:07;;;;;;;0.65;0.60;;;;;;;19.77;100.00;99911.72;4987928;28;20038;-78
2023/08/31 00:25:33;;;;;;;0.40;0.40;;;;;;;19.64;100.00;99880.38;4979862;28;20049;-76
2023/08/31 00:28:04;;;;;;;1.98;1.85;;;;;;;20.15;100.00;99962.34;4986403;28;20832;-74
2023/08/31 00:30:30;;;;;;;3.13;1.10;;;;;;;20.17;100.00;99952.50;4980261;28;20480;-75
2023/08/31 00:33:00;;;;;;;1.38;0.85;;;;;;;19.36;100.00;99833.75;4990481;28;20039;-76
2023/08/31 00:35:27;;;;;;;0.80;0.80;;;;;;;19.53;100.00;99900.38;4980106;28;20049;-76
2023/08/31 00:37:58;;;;;;;0.98;0.90;;;;;;;19.91;100.00;99959.03;4986246;28;20038;-77
2023/08/31 00:40:25;;;;;;;0.20;0.20;;;;;;;19.71;100.00;99943.09;4983188;28;20137;-77
2023/08/31 00:42:51;;;;;;;1.40;1.10;;;;;;;19.74;100.00;99940.31;4976623;28;20051;-78
2023/08/31 00:45:17;;;;;;;1.35;1.25;;;;;;;19.48;100.00;99898.84;4966945;28;20051;-77
2023/08/31 00:47:43;;;;;;;1.02;0.82;;;;;;;19.23;100.00;99867.19;4965135;28;20490;-76
2023/08/31 00:50:09;;;;;;;2.08;1.80;;;;;;;19.73;100.00;99947.41;4967158;28;20019;-74
2023/08/31 00:52:34;;;;;;;0.57;0.57;;;;;;;19.75;100.00;99963.31;4967363;28;20035;-76
2023/08/31 00:55:06;;;;;;;3.38;2.35;;;;;;;19.42;100.00;99896.47;4966234;28;20042;-77
2023/08/31 00:57:31;;;;;;;1.58;0.93;;;;;;;19.45;100.00;99905.16;4957304;28;20141;-75
2023/08/31 00:59:57;;;;;;;0.20;0.20;;;;;;;19.58;100.00;99917.00;4967759;28;20818;-76
2023/08/31 01:02:33;;;;;;;1.48;1.38;;;;;;;20.11;100.00;99975.88;4985996;28;20026;-76
2023/08/31 01:05:22;;;;;;;1.20;1.10;;;;;;;19.99;100.00;99954.22;4978926;28;20072;-76
2023/08/31 01:08:03;;;;;;;1.00;0.90;;;;;;;20.02;100.00;99993.19;4982294;28;20057;-74
2023/08/31 01:10:49;;;;;;;1.40;0.95;;;;;;;20.20;100.00;99975.44;4985932;28;20064;-77
2023/08/31 01:13:18;;;;;;;0.50;0.50;;;;;;;20.07;100.00;99953.88;4978145;28;20050;-76
2023/08/31 01:15:53;;;;;;;1.70;1.60;;;;;;;19.66;100.00;99878.53;4986319;28;20053;-77
2023/08/31 01:18:21;;;;;;;0.68;0.68;;;;;;;20.17;100.00;99957.81;4986413;28;20806;-77
2023/08/31 01:21:01;;;;;;;0.38;0.38;;;;;;;19.77;100.00;99873.59;4986319;28;20132;-77
2023/08/31 01:23:36;;;;;;;0.98;0.93;;;;;;;19.81;100.00;99853.91;4984814;28;20498;-74
2023/08/31 01:26:02;;;;;;;1.25;1.15;;;;;;;19.88;100.00;99867.75;4980792;28;20096;-75
2023/08/31 01:28:27;;;;;;;1.23;1.08;;;;;;;19.86;100.00;99856.34;4964600;28;20121;-75
2023/08/31 01:30:53;;;;;;;1.58;1.48;;;;;;;20.33;100.00;99933.13;4979851;28;20145;-73
2023/08/31 01:33:18;;;;;;;1.23;1.13;;;;;;;20.49;100.00;99959.91;4976752;28;20193;-77
2023/08/31 01:35:49;;;;;;;1.27;1.17;;;;;;;20.44;100.00;99944.13;4980887;28;20042;-77
2023/08/31 01:38:21;;;;;;;4.43;1.80;;;;;;;20.29;100.00;99936.88;4984593;28;20035;-76
2023/08/31 01:41:13;;;;;;;0.55;0.55;;;;;;;20.00;100.00;99884.03;4981764;28;20101;-77
2023/08/31 01:43:40;;;;;;;2.75;1.85;;;;;;;19.75;100.00;99854.16;4984743;28;20471;-75
2023/08/31 01:46:07;;;;;;;0.40;0.40;;;;;;;20.39;100.00;99946.13;4984820;28;20042;-78
2023/08/31 01:48:39;;;;;;;1.30;0.98;;;;;;;20.33;100.00;99941.13;4983913;28;20059;-74
2023/08/31 01:51:05;;;;;;;0.63;0.63;;;;;;;19.89;100.00;99854.38;4987087;28;20053;-76
2023/08/31 01:53:31;;;;;;;0.45;0.45;;;;;;;19.89;100.00;99853.53;4989357;28;20418;-76
2023/08/31 01:55:56;;;;;;;0.65;0.50;;;;;;;19.91;100.00;99859.66;4974397;28;20054;-74
2023/08/31 01:58:22;;;;;;;0.40;0.40;;;;;;;19.96;100.00;99854.97;4986528;28;20069;-75
2023/08/31 02:00:48;;;;;;;1.80;1.70;;;;;;;20.23;100.00;99949.53;4982041;28;20052;-75
2023/08/31 02:03:13;;;;;;;0.57;0.57;;;;;;;20.30;100.00;99960.78;4989186;28;20054;-75
2023/08/31 02:05:39;;;;;;;1.13;0.82;;;;;;;19.57;100.00;99853.19;4985406;28;20046;-74
2023/08/31 02:08:04;;;;;;;1.55;1.45;;;;;;;19.36;100.00;99837.28;4987018;28;20684;-79
2023/08/31 02:10:30;;;;;;;1.45;1.27;;;;;;;20.17;100.00;99927.66;4981781;28;20058;-76
2023/08/31 02:12:55;;;;;;;4.00;2.30;;;;;;;19.76;100.00;99885.16;4988957;28;20054;-76
2023/08/31 02:15:21;;;;;;;4.55;2.03;;;;;;;19.69;100.00;99878.41;4988427;28;20142;-75
2023/08/31 02:17:46;;;;;;;1.58;1.48;;;;;;;20.22;100.00;99963.78;4984919;28;20046;-75
2023/08/31 02:20:13;;;;;;;2.05;1.60;;;;;;;20.19;100.00;99944.44;4981966;28;20030;-74
2023/08/31 02:22:39;;;;;;;1.70;1.60;;;;;;;19.76;100.00;99847.91;4988553;28;20030;-76
2023/08/31 02:25:05;;;;;;;0.50;0.50;;;;;;;20.56;100.00;99956.03;4978707;28;20054;-76
2023/08/31 02:27:31;;;;;;;0.98;0.93;;;;;;;20.51;100.00;99944.66;4989155;28;20398;-76
2023/08/31 02:29:57;;;;;;;1.20;1.10;;;;;;;20.57;100.00;99949.75;4987267;28;20052;-76
2023/08/31 02:32:22;;;;;;;1.45;1.30;;;;;;;19.71;100.00;99836.59;4982575;28;20041;-76
2023/08/31 02:34:48;;;;;;;0.30;0.30;;;;;;;19.23;100.00;99779.41;4982633;28;20065;-76
2023/08/31 02:37:13;;;;;;;1.70;1.48;;;;;;;20.22;100.00;99955.78;4981183;28;20046;-76
2023/08/31 02:39:40;;;;;;;1.88;0.75;;;;;;;20.00;100.00;99889.38;4988126;28;20039;-75
2023/08/31 02:42:05;;;;;;;1.75;1.02;;;;;;;20.24;100.00;99945.94;4987398;28;20049;-75
2023/08/31 02:44:31;;;;;;;1.48;1.25;;;;;;;20.32;100.00;99958.91;4988262;28;20121;-77
2023/08/31 02:46:57;;;;;;;1.30;0.82;;;;;;;19.91;100.00;99871.16;4987878;28;20065;-77
2023/08/31 02:49:23;;;;;;;1.58;1.48;;;;;;;20.29;100.00;99936.88;4987911;28;20047;-76
2023/08/31 02:51:49;;;;;;;1.27;0.98;;;;;;;20.30;100.00;99962.56;4982498;28;20047;-75
2023/08/31 02:54:15;;;;;;;3.17;1.75;;;;;;;19.75;100.00;99910.94;4988154;28;20045;-75
2023/08/31 02:56:40;;;;;;;0.70;0.65;;;;;;;19.87;100.00;99951.25;4987760;28;20047;-77
2023/08/31 02:59:06;;;;;;;2.03;1.13;;;;;;;19.39;100.00;99887.69;4988176;28;20143;-78
2023/08/31 03:01:31;;;;;;;1.95;1.85;;;;;;;19.95;100.00;99976.59;4982424;28;20133;-76
2023/08/31 03:03:57;;;;;;;3.50;1.30;;;;;;;20.14;100.00;99994.41;4988472;28;20610;-74
2023/08/31 03:06:22;;;;;;;0.95;0.50;;;;;;;20.12;100.00;99973.16;4980732;28;20053;-76
2023/08/31 03:08:48;;;;;;;0.50;0.50;;;;;;;19.90;100.00;99937.78;4988448;28;20486;-75
2023/08/31 03:11:16;;;;;;;2.85;0.32;;;;;;;20.25;100.00;99976.09;4988447;28;20085;-78
2023/08/31 03:13:42;;;;;;;1.15;0.70;;;;;;;19.83;100.00;99868.00;4987326;28;20142;-77
2023/08/31 03:16:07;;;;;;;0.52;0.52;;;;;;;20.02;100.00;99922.13;4986026;28;20073;-74
2023/08/31 03:18:33;;;;;;;1.17;1.08;;;;;;;20.20;100.00;99940.81;4984495;28;20058;-78
2023/08/31 03:20:58;;;;;;;1.15;1.05;;;;;;;19.60;100.00;99847.75;4979593;28;20062;-75
2023/08/31 03:23:24;;;;;;;0.80;0.68;;;;;;;19.96;100.00;99884.25;4985701;28;20068;-77
2023/08/31 03:25:50;;;;;;;1.15;1.05;;;;;;;20.00;100.00;99939.09;4986973;28;20033;-76
2023/08/31 03:28:16;;;;;;;1.42;1.23;;;;;;;19.65;100.00;99896.31;4984128;28;20102;-76
2023/08/31 03:30:41;;;;;;;1.65;1.38;;;;;;;19.61;100.00;99873.41;4984006;28;20042;-76
2023/08/31 03:33:07;;;;;;;0.60;0.50;;;;;;;20.37;100.00;99975.53;4984893;28;20097;-76
2023/08/31 03:35:32;;;;;;;2.30;2.10;;;;;;;20.35;100.00;99957.91;4980761;28;20113;-76
2023/08/31 03:37:58;;;;;;;1.95;1.75;;;;;;;20.07;100.00;99913.06;4987812;28;20030;-76
2023/08/31 03:40:23;;;;;;;0.77;0.75;;;;;;;20.40;100.00;99983.38;4982691;28;20069;-76
2023/08/31 03:42:53;;;;;;;0.98;0.60;;;;;;;20.30;100.00;99954.56;4984772;28;20042;-77
2023/08/31 03:45:19;;;;;;;3.35;1.85;;;;;;;20.49;100.00;99983.91;4985229;28;20062;-76
2023/08/31 03:47:45;;;;;;;1.60;1.45;;;;;;;19.92;100.00;99885.31;4980960;28;20038;-76
2023/08/31 03:50:10;;;;;;;3.05;2.85;;;;;;;20.57;100.00;99989.75;4987534;28;20088;-77
2023/08/31 03:52:36;;;;;;;0.90;0.80;;;;;;;20.20;100.00;99916.84;4988116;28;20041;-76
2023/08/31 03:55:02;;;;;;;1.20;0.88;;;;;;;20.18;100.00;99900.06;4985693;28;20410;-77
2023/08/31 03:57:27;;;;;;;0.50;0.50;;;;;;;19.70;100.00;99819.78;4984789;28;20062;-75
2023/08/31 03:59:52;;;;;;;1.15;1.05;;;;;;;20.02;100.00;99895.47;4984945;28;20757;-75
2023/08/31 04:02:18;;;;;;;0.73;0.73;;;;;;;20.08;100.00;99889.00;4975369;28;20427;-77
2023/08/31 04:04:43;;;;;;;2.03;1.73;;;;;;;20.53;100.00;99959.66;4986961;28;20034;-75
2023/08/31 04:07:09;;;;;;;2.53;1.92;;;;;;;20.15;100.00;99881.56;4985642;28;20594;-76
2023/08/31 04:09:34;;;;;;;0.50;0.50;;;;;;;20.63;100.00;99965.47;4986452;28;20046;-76
2023/08/31 04:12:00;;;;;;;0.88;0.80;;;;;;;20.82;100.00;99970.75;4984458;28;20046;-76
2023/08/31 04:14:28;;;;;;;1.90;1.58;;;;;;;20.68;100.00;99942.09;4986457;28;20065;-76
2023/08/31 04:16:55;;;;;;;2.83;1.33;;;;;;;20.83;100.00;99967.13;4979081;28;20398;-76
2023/08/31 04:19:20;;;;;;;0.45;0.45;;;;;;;20.79;100.00;99968.22;4986928;28;20054;-76
2023/08/31 04:21:46;;;;;;;1.92;1.15;;;;;;;20.90;100.00;99981.03;4986599;28;20044;-74
2023/08/31 04:24:11;;;;;;;0.93;0.90;;;;;;;20.24;100.00;99870.47;4980460;28;20136;-77
2023/08/31 04:26:37;;;;;;;1.02;0.95;;;;;;;20.90;100.00;99989.88;5016217;28;20042;-78
2023/08/31 04:29:05;;;;;;;1.15;0.93;;;;;;;20.87;100.00;99974.91;4986591;28;20037;-75
2023/08/31 04:31:32;;;;;;;3.17;2.97;;;;;;;20.87;100.00;99985.56;4981631;28;20141;-76
2023/08/31 04:33:58;;;;;;;2.63;0.85;;;;;;;20.98;100.00;99995.72;4986659;28;20161;-75
2023/08/31 04:36:28;;;;;;;2.33;1.83;;;;;;;20.02;100.00;99820.06;4984883;28;20558;-77
2023/08/31 04:38:54;;;;;;;1.20;0.63;;;;;;;20.64;100.00;99901.38;4978775;28;20157;-77
2023/08/31 04:41:19;;;;;;;0.52;0.52;;;;;;;21.14;100.00;99995.81;4986255;28;20505;-74
2023/08/31 04:43:47;;;;;;;1.05;0.93;;;;;;;21.03;100.00;99984.81;4983665;28;20034;-75
2023/08/31 04:46:13;;;;;;;0.47;0.47;;;;;;;20.72;100.00;99940.13;4988229;28;20060;-75
2023/08/31 04:48:39;;;;;;;1.85;1.75;;;;;;;21.06;100.00;99990.84;4988189;28;20066;-77
2023/08/31 04:51:04;;;;;;;1.23;1.13;;;;;;;21.07;100.00;99989.94;4986182;28;20038;-77
2023/08/31 04:53:30;;;;;;;1.77;1.67;;;;;;;21.19;100.00;99987.56;4984976;28;20450;-76
2023/08/31 04:55:55;;;;;;;1.23;1.13;;;;;;;20.72;100.00;99893.03;4983095;28;20382;-76
2023/08/31 04:58:21;;;;;;;0.90;0.90;;;;;;;21.02;100.00;99969.72;4981616;28;20050;-75
2023/08/31 05:00:47;;;;;;;0.60;0.60;;;;;;;21.00;100.00;99943.16;4985417;28;20046;-76
2023/08/31 05:03:13;;;;;;;1.15;1.05;;;;;;;21.23;100.00;99970.44;4982888;28;20042;-76
2023/08/31 05:05:38;;;;;;;2.38;1.80;;;;;;;21.07;100.00;99920.56;4984338;28;20129;-76
2023/08/31 05:08:04;;;;;;;1.02;0.95;;;;;;;21.56;100.00;99993.72;4982367;28;20066;-75
2023/08/31 05:10:30;;;;;;;1.20;1.10;;;;;;;20.97;100.00;99891.75;4984246;28;20050;-75
2023/08/31 05:12:55;;;;;;;0.45;0.30;;;;;;;21.49;100.00;99974.47;4979780;28;20043;-75
2023/08/31 05:15:21;;;;;;;0.80;0.65;;;;;;;21.04;100.00;99885.16;4985991;28;20057;-75
2023/08/31 05:17:48;;;;;;;1.30;0.90;;;;;;;21.81;100.00;99977.25;4985783;28;20034;-75
2023/08/31 05:20:13;;;;;;;1.02;0.88;;;;;;;21.47;100.00;99864.25;4986531;28;20050;-75
2023/08/31 05:22:39;;;;;;;1.27;1.17;;;;;;;22.25;100.00;99875.97;4989963;28;20201;-77
2023/08/31 05:25:05;;;;;;;1.55;1.45;;;;;;;24.05;100.00;99948.22;4985710;28;20043;-75
2023/08/31 05:27:30;;;;;;;1.67;1.15;;;;;;;23.89;100.00;99928.69;4985896;28;20104;-75
2023/08/31 05:29:56;;;;;;;1.20;1.10;;;;;;;23.78;100.00;99843.63;4984020;28;20116;-77
2023/08/31 05:32:21;;;;;;;1.52;1.02;;;;;;;25.14;100.00;99910.66;4976290;28;20475;-76
2023/08/31 05:34:46;;;;;;;0.68;0.68;;;;;;;25.95;100.00;99904.16;4981927;28;20058;-77
2023/08/31 05:37:12;;;;;;;1.05;0.98;;;;;;;25.79;100.00;99840.69;4988681;28;20108;-77
2023/08/31 05:39:38;;;;;;;0.35;0.35;;;;;;;26.88;100.00;99908.00;4986403;28;20045;-75
2023/08/31 05:42:03;;;;;;;2.88;1.77;;;;;;;27.11;100.00;99925.09;4979737;28;20049;-72
2023/08/31 05:44:29;;;;;;;1.60;1.30;;;;;;;27.27;100.00;99922.09;4985412;28;20042;-73
2023/08/31 05:46:54;;;;;;;2.03;1.85;;;;;;;27.52;100.00;99931.81;4984842;28;20077;-78
2023/08/31 05:49:20;;;;;;;2.22;1.73;;;;;;;27.48;100.00;99905.22;4983379;28;20495;-81
2023/08/31 05:51:45;;;;;;;1.98;1.88;;;;;;;27.06;100.00;99859.09;4967754;28;20364;-76
2023/08/31 05:54:13;;;;;;;1.48;1.02;;;;;;;27.09;100.00;99932.44;4970773;28;20055;-77
2023/08/31 05:56:40;;;;;;;0.73;0.60;;;;;;;27.72;100.00;99876.34;4982530;28;20138;-71
2023/08/31 05:59:06;;;;;;;0.50;0.45;;;;;;;27.92;100.00;99860.41;4987624;28;20874;-72
2023/08/31 06:01:32;;;;;;;0.47;0.30;;;;;;;26.51;100.00;99936.81;4988219;28;20520;-72
2023/08/31 06:03:57;;;;;;;0.82;0.82;;;;;;;27.99;100.00;99870.56;4983283;28;20429;-72
2023/08/31 06:06:23;;;;;;;2.92;2.15;;;;;;;28.60;100.00;99952.91;4976693;28;20057;-70
2023/08/31 06:08:48;;;;;;;2.03;0.32;;;;;;;28.83;100.00;99940.19;4979148;28;20058;-72
2023/08/31 06:11:14;;;;;;;1.73;0.52;;;;;;;28.71;100.00;99874.56;4985294;28;20085;-70
2023/08/31 06:13:40;;;;;;;0.30;0.30;;;;;;;28.65;100.00;99953.38;4985725;28;20043;-70
2023/08/31 06:16:05;;;;;;;17.73;2.50;;;;;;;29.06;100.00;99973.38;4982034;28;20057;-70
2023/08/31 06:18:31;;;;;;;4.05;1.15;;;;;;;28.11;100.00;99967.66;4980281;28;20050;-73
2023/08/31 06:20:56;;;;;;;0.43;0.43;;;;;;;28.05;100.00;99893.50;4986401;28;20049;-75
2023/08/31 06:23:22;;;;;;;1.15;1.05;;;;;;;27.86;100.00;99869.88;4982664;28;20130;-75
2023/08/31 06:25:47;;;;;;;3.85;1.40;;;;;;;27.69;100.00;99859.53;4989050;28;20026;-74
2023/08/31 06:28:13;;;;;;;1.15;1.05;;;;;;;28.10;100.00;99957.88;4987509;28;20077;-73
2023/08/31 06:30:38;;;;;;;0.77;0.73;;;;;;;28.09;100.00;99964.22;4981102;28;20077;-75
2023/08/31 06:33:04;;;;;;;0.88;0.77;;;;;;;28.20;100.00;99948.91;4985072;28;20070;-74
2023/08/31 06:35:31;;;;;;;1.27;1.15;;;;;;;28.21;100.00;99968.63;4986311;28;20070;-75
2023/08/31 06:37:56;;;;;;;0.30;0.30;;;;;;;26.95;100.00;99865.31;4981136;28;20532;-75
2023/08/31 06:40:22;;;;;;;1.95;1.02;;;;;;;27.29;100.00;99952.47;4982226;28;20046;-75
2023/08/31 06:42:47;;;;;;;1.55;1.10;;;;;;;26.63;100.00;99871.31;4982586;28;20129;-74
2023/08/31 06:45:13;;;;;;;0.80;0.80;;;;;;;26.34;100.00;99876.19;4989445;28;20061;-73
2023/08/31 06:47:38;;;;;;;0.65;0.60;;;;;;;26.75;100.00;99971.81;4981474;28;20058;-74
2023/08/31 06:50:04;;;;;;;3.42;2.53;;;;;;;26.63;100.00;99959.28;4982347;28;20037;-75
2023/08/31 06:52:30;;;;;;;0.98;0.88;;;;;;;26.08;100.00;99904.97;4987450;28;20984;-74
2023/08/31 06:54:56;;;;;;;2.72;2.53;;;;;;;25.99;100.00;99895.75;4983169;28;20083;-74
2023/08/31 06:57:23;;;;;;;1.25;1.13;;;;;;;26.31;100.00;99984.84;4987286;28;20056;-76
2023/08/31 06:59:48;;;;;;;0.22;0.22;;;;;;;25.87;100.00;99920.81;4980178;28;20158;-74
2023/08/31 07:02:14;;;;;;;2.33;2.08;;;;;;;25.65;100.00;99897.28;4985231;28;20770;-74
2023/08/31 07:04:40;;;;;;;0.30;0.30;;;;;;;25.49;100.00;99895.66;4977755;28;20494;-75
2023/08/31 07:07:06;;;;;;;2.15;2.00;;;;;;;26.05;100.00;99980.50;4980558;28;20395;-73
2023/08/31 07:09:31;;;;;;;0.90;0.88;;;;;;;25.58;100.00;99907.59;4985405;28;20057;-73
2023/08/31 07:11:58;;;;;;;2.53;2.05;;;;;;;25.95;100.00;99976.75;4985569;28;20248;-74
2023/08/31 07:14:23;;;;;;;1.65;1.27;;;;;;;26.02;100.00;99994.16;4981139;28;20737;-77
2023/08/31 07:16:50;;;;;;;1.65;1.50;;;;;;;25.54;100.00;99910.59;4982848;28;20045;-73
2023/08/31 07:19:15;;;;;;;2.50;2.30;;;;;;;25.32;100.00;99889.78;4979734;28;20050;-76
2023/08/31 07:21:41;;;;;;;1.67;1.58;;;;;;;25.56;100.00;99976.69;4986665;28;20094;-74
2023/08/31 07:24:06;;;;;;;0.75;0.75;;;;;;;25.76;100.00;99975.31;4985269;28;20166;-73
2023/08/31 07:26:32;;;;;;;1.88;1.73;;;;;;;25.25;100.00;100000.31;4989445;28;20140;-73
2023/08/31 07:28:57;;;;;;;0.35;0.35;;;;;;;25.51;100.00;99996.81;4974145;28;20058;-74
2023/08/31 07:31:23;;;;;;;0.93;0.85;;;;;;;25.79;100.00;99982.31;4981471;28;20501;-75
2023/08/31 07:33:48;;;;;;;4.43;1.10;;;;;;;25.77;100.00;99968.13;4996103;28;20074;-74
2023/08/31 07:36:15;;;;;;;1.42;1.33;;;;;;;25.24;100.00;99898.38;4982620;28;20035;-74
2023/08/31 07:38:40;;;;;;;0.88;0.73;;;;;;;25.96;100.00;99997.28;4985582;28;20410;-73
2023/08/31 07:41:06;;;;;;;1.95;1.80;;;;;;;25.58;100.00;99923.72;5015873;28;20030;-74
2023/08/31 07:43:31;;;;;;;1.60;1.50;;;;;;;25.23;100.00;99927.03;4986304;28;20402;-74
2023/08/31 07:45:57;;;;;;;1.73;1.40;;;;;;;25.56;100.00;99984.75;4983294;28;20039;-73
2023/08/31 07:48:23;;;;;;;1.33;1.15;;;;;;;25.53;100.00;99962.63;4980619;28;20049;-74
2023/08/31 07:50:51;;;;;;;1.65;1.08;;;;;;;25.81;100.00;100013.50;4984065;28;20047;-74
2023/08/31 07:53:17;;;;;;;1.20;1.13;;;;;;;25.36;100.00;99928.88;4984087;28;20129;-74
2023/08/31 07:55:54;;;;;;;1.48;1.27;;;;;;;25.30;100.00;99937.34;4982783;28;20041;-74
2023/08/31 07:58:21;;;;;;;0.35;0.32;;;;;;;25.56;100.00;99984.75;4984009;28;20046;-74
2023/08/31 08:00:46;;;;;;;1.48;1.38;;;;;;;25.90;100.00;100012.03;4991436;28;20367;-74
2023/08/31 08:03:12;;;;;;;1.38;0.73;;;;;;;25.72;100.00;99997.16;4984724;28;20057;-75
2023/08/31 08:05:39;;;;;;;2.38;2.05;;;;;;;25.88;100.00;100017.50;4979627;28;20999;-76
2023/08/31 08:08:05;;;;;;;1.52;1.42;;;;;;;25.54;100.00;99948.22;4987687;28;20030;-73
2023/08/31 08:10:30;;;;;;;2.80;1.95;;;;;;;25.58;100.00;99949.75;4984078;28;20102;-75
2023/08/31 08:12:56;;;;;;;0.77;0.73;;;;;;;25.82;100.00;99999.06;4985877;28;20042;-74
2023/08/31 08:15:22;;;;;;;2.03;1.88;;;;;;;26.05;100.00;100012.75;4976113;28;20054;-75
2023/08/31 08:17:48;;;;;;;2.42;2.25;;;;;;;25.69;100.00;99934.56;4985487;28;20104;-75
2023/08/31 08:20:13;;;;;;;1.77;0.95;;;;;;;25.99;100.00;99967.47;4982559;28;20103;-76
2023/08/31 08:22:39;;;;;;;0.70;0.70;;;;;;;26.23;100.00;100006.06;4978343;28;20599;-77
2023/08/31 08:25:05;;;;;;;34.50;31.85;;;;;;;26.05;100.00;99930.25;4982175;28;20145;-75
2023/08/31 08:27:32;;;;;;;61.15;55.75;;;;;;;26.38;100.00;99954.81;4977937;28;20514;-74
2023/08/31 08:29:58;;;;;;;59.50;50.88;;;;;;;26.36;100.00;99932.53;4977718;28;20097;-74
2023/08/31 08:32:24;;;;;;;37.88;33.88;;;;;;;26.38;100.00;99927.91;4982887;28;20036;-74
2023/08/31 08:34:50;;;;;;;56.58;51.20;;;;;;;26.87;100.00;99988.88;4985494;28;20030;-74
2023/08/31 08:37:16;;;;;;;17.15;15.63;;;;;;;26.30;100.00;99912.34;4985474;28;20082;-73
2023/08/31 08:39:41;;;;;;;15.60;14.07;;;;;;;26.98;100.00;100013.19;4985233;28;21547;-74
2023/08/31 08:42:09;;;;;;;33.78;30.52;;;;;;;26.58;100.00;99931.84;4973729;28;20042;-73
2023/08/31 08:44:36;;;;;;;22.85;19.80;;;;;;;27.13;100.00;100013.84;4973362;28;20442;-74
2023/08/31 08:47:03;;;;;;;20.42;16.08;;;;;;;26.54;100.00;99923.13;4984780;28;20038;-74
2023/08/31 08:49:31;;;;;;;6.78;6.13;;;;;;;26.60;100.00;99928.06;4988745;28;20150;-73
2023/08/31 08:51:58;;;;;;;36.13;32.65;;;;;;;27.14;100.00;100013.75;4981127;28;20047;-74
2023/08/31 08:54:24;;;;;;;31.88;28.58;;;;;;;26.60;100.00;99914.63;4982371;28;20058;-74
2023/08/31 08:56:49;;;;;;;8.10;7.30;;;;;;;27.39;100.00;100029.91;4979662;28;20050;-75
2023/08/31 08:59:15;;;;;;;9.35;8.43;;;;;;;27.33;100.00;100023.16;4980214;28;20678;-74
2023/08/31 09:01:41;;;;;;;23.05;21.08;;;;;;;27.40;100.00;100021.72;4980365;28;20034;-76
2023/08/31 09:04:06;;;;;;;22.52;20.23;;;;;;;27.20;100.00;99993.59;4985124;28;20149;-75
2023/08/31 09:06:33;;;;;;;18.23;10.85;;;;;;;27.43;100.00;100021.47;4984861;28;20039;-74
2023/08/31 09:08:58;;;;;;;5.53;4.05;;;;;;;27.54;100.00;100024.22;4982092;28;20057;-75
2023/08/31 09:11:25;;;;;;;18.33;16.75;;;;;;;27.25;100.00;99958.22;4985231;28;20399;-74
2023/08/31 09:13:51;;;;;;;12.57;8.93;;;;;;;27.71;100.00;100016.66;4985865;28;20545;-75
2023/08/31 09:16:28;;;;;;;9.05;6.20;;;;;;;27.38;100.00;99961.69;4985527;28;20569;-79
2023/08/31 09:18:57;;;;;;;19.45;10.00;;;;;;;27.26;100.00;99930.31;4986306;28;20054;-76
2023/08/31 09:21:34;;;;;;;4.53;2.42;;;;;;;27.77;100.00;99983.81;4992814;28;20526;-76
2023/08/31 09:23:59;;;;;;;5.68;3.63;;;;;;;27.86;100.00;99985.81;4981720;28;20189;-74
2023/08/31 09:26:26;;;;;;;2.28;1.90;;;;;;;28.07;100.00;99999.41;4995231;28;20757;-78
2023/08/31 09:28:53;;;;;;;3.03;2.63;;;;;;;28.13;100.00;100014.28;4986251;28;20443;-79
2023/08/31 09:31:18;;;;;;;1.35;1.25;;;;;;;27.58;100.00;99925.97;4983583;28;20051;-76
2023/08/31 09:33:52;;;;;;;0.50;0.50;;;;;;;27.21;100.00;99851.69;4977886;28;20047;-80
2023/08/31 09:36:17;;;;;;;1.25;1.17;;;;;;;28.21;100.00;100009.09;4981966;28;20060;-75
2023/08/31 09:38:44;;;;;;;1.85;1.65;;;;;;;27.67;100.00;99947.75;4987930;28;20365;-75
2023/08/31 09:41:09;;;;;;;1.20;0.98;;;;;;;27.81;100.00;99931.34;4982430;28;20035;-76
2023/08/31 09:43:35;;;;;;;0.77;0.77;;;;;;;28.40;99.77;100001.25;4980352;28;20053;-74
2023/08/31 09:46:04;;;;;;;1.05;0.95;;;;;;;28.07;99.25;99925.72;4979389;28;20057;-73
2023/08/31 09:48:30;;;;;;;1.65;1.40;;;;;;;28.91;99.13;100009.75;4980804;28;20078;-74
2023/08/31 09:50:56;;;;;;;0.82;0.82;;;;;;;28.83;98.70;99995.06;4982214;28;20051;-84
2023/08/31 09:53:24;;;;;;;1.08;0.98;;;;;;;28.88;91.34;100013.59;4979602;28;20370;-79
2023/08/31 09:55:52;;;;;;;0.57;0.57;;;;;;;29.18;87.20;99996.69;4987138;28;20057;-76
2023/08/31 09:58:20;;;;;;;1.08;0.98;;;;;;;29.56;93.26;100019.56;4985135;28;20073;-78
2023/08/31 10:00:46;;;;;;;0.63;0.30;;;;;;;28.46;80.72;99862.25;5014988;28;20141;-78
2023/08/31 10:03:15;;;;;;;0.55;0.38;;;;;;;29.07;81.50;99945.38;4983703;28;20254;-77
2023/08/31 10:05:43;;;;;;;2.22;1.10;;;;;;;29.75;84.77;99999.94;4985887;28;20042;-75
2023/08/31 10:08:10;;;;;;;5.70;1.15;;;;;;;30.00;78.55;100001.38;4986609;28;20116;-79
2023/08/31 10:10:37;;;;;;;0.50;0.47;;;;;;;30.11;70.31;99999.53;4981706;28;20047;-73
2023/08/31 10:13:07;;;;;;;0.20;0.20;;;;;;;30.07;73.92;100023.34;4987441;28;20042;-74
2023/08/31 10:15:35;;;;;;;1.65;1.55;;;;;;;29.93;70.58;100002.03;4993820;28;20082;-74
2023/08/31 10:18:03;;;;;;;0.98;0.85;;;;;;;30.48;63.21;100029.63;4991891;28;20078;-75
2023/08/31 10:20:33;;;;;;;1.52;1.42;;;;;;;30.53;64.04;99940.72;4990339;28;20134;-74
2023/08/31 10:23:00;;;;;;;1.13;1.00;;;;;;;30.97;54.83;99995.41;4991425;28;20421;-76
2023/08/31 10:25:26;;;;;;;0.40;0.40;;;;;;;31.70;54.52;100003.97;4982101;28;20078;-86
2023/08/31 10:27:52;;;;;;;0.32;0.32;;;;;;;32.11;53.08;100022.72;4978788;28;20054;-80
2023/08/31 10:30:28;;;;;;;1.15;1.05;;;;;;;31.12;51.15;99930.81;4983895;28;20044;-75
2023/08/31 10:33:08;;;;;;;2.78;0.93;;;;;;;30.78;55.18;100023.31;4987588;28;20061;-77
2023/08/31 10:35:42;;;;;;;0.70;0.70;;;;;;;30.40;56.38;100000.56;4979955;28;20137;-77
2023/08/31 10:38:25;;;;;;;0.30;0.30;;;;;;;30.58;56.86;99956.53;4984674;28;20042;-76
2023/08/31 10:41:06;;;;;;;0.43;0.43;;;;;;;31.51;54.48;99998.53;4986658;28;20069;-78
2023/08/31 10:43:46;;;;;;;0.63;0.50;;;;;;;32.01;53.25;100005.59;4983062;28;20137;-82
2023/08/31 10:46:47;;;;;;;1.48;1.38;;;;;;;31.97;51.96;100007.75;4984805;28;20103;-76
2023/08/31 10:49:14;;;;;;;0.60;0.60;;;;;;;31.50;52.34;100008.56;4982243;28;20049;-75
2023/08/31 10:51:42;;;;;;;0.50;0.50;;;;;;;30.89;52.33;99947.34;4986831;28;20054;-75
2023/08/31 10:54:46;;;;;;;1.15;1.05;;;;;;;32.13;51.89;100015.28;4988754;28;20404;-78
2023/08/31 10:57:13;;;;;;;1.73;1.38;;;;;;;31.55;50.65;99929.47;4974758;28;20058;-77
2023/08/31 10:59:46;;;;;;;1.17;1.08;;;;;;;32.05;52.12;99999.72;4982754;28;20145;-75
2023/08/31 11:02:33;;;;;;;3.22;2.92;;;;;;;31.89;54.37;99992.19;4984132;28;20038;-74
2023/08/31 11:05:07;;;;;;;8.23;7.40;;;;;;;30.86;71.02;99988.28;4980834;28;20052;-70
2023/08/31 11:07:35;;;;;;;8.40;5.78;;;;;;;30.84;62.28;99906.28;4981693;28;20061;-70
2023/08/31 11:10:30;;;;;;;4.47;4.07;;;;;;;31.18;63.84;99992.56;4984797;28;20447;-71
2023/08/31 11:12:57;;;;;;;1.70;1.60;;;;;;;30.60;61.66;99996.06;4977438;28;20083;-71
2023/08/31 11:15:25;;;;;;;4.60;3.90;;;;;;;29.69;72.27;99941.00;4983710;28;20411;-70
2023/08/31 11:17:52;;;;;;;2.33;2.08;;;;;;;28.99;72.33;99919.00;4984395;28;20501;-72
2023/08/31 11:20:20;;;;;;;1.17;0.98;;;;;;;29.13;70.81;99935.91;4985478;28;20088;-71
2023/08/31 11:22:49;;;;;;;0.68;0.68;;;;;;;29.54;64.11;99918.81;4986845;28;20042;-71
2023/08/31 11:25:16;;;;;;;1.02;1.02;;;;;;;30.29;68.77;99987.97;4985441;28;20081;-71